createdAt,value
2019-05-03T00:02:27.204Z,100352.93
2019-05-03T00:05:23.066Z,100349.36
2019-05-03T00:07:53.951Z,100354.04
2019-05-03T00:10:22.926Z,100343.22
2019-05-03T00:12:52.785Z,100355.10
2019-05-03T00:15:35.131Z,100337.11
2019-05-03T00:18:03.904Z,100347.84
2019-05-03T00:20:32.726Z,100345.66
2019-05-03T00:23:02.960Z,100353.02
2019-05-03T00:25:32.615Z,100350.38
2019-05-03T00:28:01.950Z,100359.63
2019-05-03T00:30:31.999Z,100352.78
2019-05-03T00:33:02.875Z,100361.86
2019-05-03T00:36:03.352Z,100351.38
2019-05-03T00:38:32.530Z,100352.22
2019-05-03T00:41:01.838Z,100358.20
2019-05-03T00:43:31.784Z,100360.05
2019-05-03T00:46:02.044Z,100356.02
2019-05-03T00:48:32.586Z,100358.09
2019-05-03T00:51:02.404Z,100359.27
2019-05-03T00:53:31.877Z,100359.59
2019-05-03T00:56:01.775Z,100351.77
2019-05-03T00:58:31.799Z,100351.16
2019-05-03T01:01:02.484Z,100349.27
2019-05-03T01:03:32.546Z,100352.00
2019-05-03T01:06:02.268Z,100346.86
2019-05-03T01:08:32.633Z,100346.87
2019-05-03T01:11:02.109Z,100344.33
2019-05-03T01:13:32.078Z,100340.91
2019-05-03T01:16:06.062Z,100347.57
2019-05-03T01:18:34.714Z,100341.13
2019-05-03T01:21:03.441Z,100344.74
2019-05-03T01:23:32.558Z,100347.23
2019-05-03T01:26:02.493Z,100343.91
2019-05-03T01:28:32.312Z,100344.78
2019-05-03T01:31:02.566Z,100351.44
2019-05-03T01:33:32.167Z,100350.42
2019-05-03T01:36:02.762Z,100352.55
2019-05-03T01:38:32.000Z,100350.83
2019-05-03T01:41:01.701Z,100353.56
2019-05-03T01:43:31.764Z,100359.17
2019-05-03T01:46:02.532Z,100357.77
2019-05-03T01:48:48.878Z,100359.40
2019-05-03T01:51:32.698Z,100364.88
2019-05-03T01:54:01.760Z,100358.00
2019-05-03T01:56:31.642Z,100366.50
2019-05-03T01:59:01.870Z,100365.61
2019-05-03T02:01:44.040Z,100365.16
2019-05-03T02:04:18.132Z,100366.00
2019-05-03T02:06:46.354Z,100363.34
2019-05-03T02:09:14.952Z,100375.15
2019-05-03T02:11:43.476Z,100373.38
2019-05-03T02:14:12.465Z,100369.93
2019-05-03T02:16:42.011Z,100370.70
2019-05-03T02:19:12.497Z,100371.88
2019-05-03T02:21:41.647Z,100379.69
2019-05-03T02:24:11.801Z,100379.02
2019-05-03T02:26:42.337Z,100380.19
2019-05-03T02:29:12.568Z,100379.26
2019-05-03T02:31:43.633Z,100385.08
2019-05-03T02:34:12.532Z,100380.28
2019-05-03T02:36:42.750Z,100383.78
2019-05-03T02:39:13.917Z,100382.95
2019-05-03T02:41:45.220Z,100388.82
2019-05-03T02:44:15.885Z,100393.21
2019-05-03T02:47:05.532Z,100395.20
2019-05-03T02:49:40.931Z,100399.16
2019-05-03T02:52:29.376Z,100403.31
2019-05-03T02:54:58.129Z,100402.98
2019-05-03T02:57:26.982Z,100404.36
2019-05-03T02:59:55.502Z,100408.45
2019-05-03T03:02:26.375Z,100410.24
2019-05-03T03:04:56.419Z,100406.68
2019-05-03T03:07:26.106Z,100412.46
2019-05-03T03:09:58.033Z,100408.45
2019-05-03T03:12:28.588Z,100410.55
2019-05-03T03:15:00.030Z,100414.84
2019-05-03T03:17:36.157Z,100410.55
2019-05-03T03:20:07.185Z,100414.98
2019-05-03T03:22:41.336Z,100417.67
2019-05-03T03:25:17.497Z,100417.25
2019-05-03T03:27:49.293Z,100416.16
2019-05-03T03:30:39.485Z,100426.32
2019-05-03T03:33:11.846Z,100419.41
2019-05-03T03:35:41.507Z,100420.53
2019-05-03T03:38:10.244Z,100423.83
2019-05-03T03:40:39.380Z,100429.87
2019-05-03T03:43:09.060Z,100427.58
2019-05-03T03:45:39.580Z,100429.66
2019-05-03T03:48:09.796Z,100438.95
2019-05-03T03:50:40.364Z,100438.59
2019-05-03T03:53:10.469Z,100444.16
2019-05-03T03:55:41.332Z,100444.53
2019-05-03T03:58:10.056Z,100440.09
2019-05-03T04:00:38.902Z,100433.53
2019-05-03T04:03:07.695Z,100444.61
2019-05-03T04:05:36.404Z,100443.41
2019-05-03T04:08:05.804Z,100443.98
2019-05-03T04:10:35.251Z,100445.66
2019-05-03T04:13:06.878Z,100455.55
2019-05-03T04:15:55.922Z,100454.98
2019-05-03T04:18:29.009Z,100459.42
2019-05-03T04:20:57.543Z,100460.10
2019-05-03T04:23:30.001Z,100462.06
2019-05-03T04:25:59.718Z,100469.25
2019-05-03T04:28:28.441Z,100470.38
2019-05-03T04:30:57.212Z,100479.83
2019-05-03T04:33:26.957Z,100484.42
2019-05-03T04:35:56.098Z,100476.52
2019-05-03T04:38:25.567Z,100484.39
2019-05-03T04:40:56.203Z,100486.91
2019-05-03T04:43:26.426Z,100494.17
2019-05-03T04:46:16.582Z,100496.13
2019-05-03T04:48:45.309Z,100499.86
2019-05-03T04:51:16.517Z,100499.38
2019-05-03T04:53:49.107Z,100505.97
2019-05-03T04:56:17.751Z,100501.81
2019-05-03T04:58:46.576Z,100504.45
2019-05-03T05:01:15.936Z,100510.41
2019-05-03T05:03:45.680Z,100503.96
2019-05-03T05:06:15.373Z,100509.37
2019-05-03T05:08:46.035Z,100510.56
2019-05-03T05:11:15.761Z,100516.73
2019-05-03T05:13:45.774Z,100514.28
2019-05-03T05:16:16.033Z,100519.02
2019-05-03T05:18:50.093Z,100519.85
2019-05-03T05:21:25.347Z,100525.61
2019-05-03T05:24:01.422Z,100533.52
2019-05-03T05:26:37.776Z,100535.93
2019-05-03T05:29:09.426Z,100543.21
2019-05-03T05:31:37.963Z,100545.58
2019-05-03T05:34:08.896Z,100546.91
2019-05-03T05:36:36.977Z,100552.78
2019-05-03T05:39:06.858Z,100552.03
2019-05-03T05:41:35.491Z,100557.22
2019-05-03T05:44:05.421Z,100557.48
2019-05-03T05:46:47.235Z,100558.34
2019-05-03T05:49:35.423Z,100557.62
2019-05-03T05:52:04.995Z,100556.71
2019-05-03T05:54:35.118Z,100557.84
2019-05-03T05:57:26.325Z,100561.64
2019-05-03T05:59:57.707Z,100560.27
2019-05-03T06:02:26.332Z,100556.07
2019-05-03T06:04:54.962Z,100569.50
2019-05-03T06:07:44.477Z,100560.25
2019-05-03T06:10:20.256Z,100567.52
2019-05-03T06:13:04.988Z,100562.14
2019-05-03T06:15:41.877Z,100569.41
2019-05-03T06:18:16.324Z,100564.73
2019-05-03T06:20:58.632Z,100566.55
2019-05-03T06:23:31.546Z,100566.63
2019-05-03T06:26:00.422Z,100568.83
2019-05-03T06:28:35.119Z,100575.64
2019-05-03T06:31:14.922Z,100574.05
2019-05-03T06:33:45.054Z,100579.37
2019-05-03T06:36:15.237Z,100579.33
2019-05-03T06:38:44.740Z,100576.05
2019-05-03T06:41:14.998Z,100573.84
2019-05-03T06:43:45.108Z,100575.70
2019-05-03T06:46:16.418Z,100575.39
2019-05-03T06:48:44.762Z,100571.89
2019-05-03T06:51:17.865Z,100568.97
2019-05-03T06:53:47.536Z,100569.37
2019-05-03T06:56:14.886Z,100569.66
2019-05-03T06:58:44.860Z,100566.01
2019-05-03T07:01:29.627Z,100564.08
2019-05-03T07:04:05.689Z,100563.58
2019-05-03T07:06:56.526Z,100569.95
2019-05-03T07:09:54.691Z,100570.06
2019-05-03T07:12:25.031Z,100563.58
2019-05-03T07:14:54.883Z,100570.54
2019-05-03T07:17:24.833Z,100576.37
2019-05-03T07:19:54.611Z,100584.02
2019-05-03T07:22:24.469Z,100588.45
2019-05-03T07:24:54.659Z,100585.63
2019-05-03T07:27:24.782Z,100583.11
2019-05-03T07:29:55.479Z,100585.16
2019-05-03T07:32:24.680Z,100585.72
2019-05-03T07:34:55.498Z,100581.91
2019-05-03T07:37:24.591Z,100576.45
2019-05-03T07:39:55.488Z,100567.41
2019-05-03T07:42:25.613Z,100567.31
2019-05-03T07:44:55.977Z,100562.77
2019-05-03T07:47:24.798Z,100564.27
2019-05-03T07:49:54.687Z,100574.00
2019-05-03T07:52:23.331Z,100573.19
2019-05-03T07:54:52.009Z,100577.56
2019-05-03T07:57:28.653Z,100572.48
2019-05-03T07:59:57.403Z,100572.39
2019-05-03T08:02:27.488Z,100570.51
2019-05-03T08:04:56.321Z,100568.42
2019-05-03T08:07:25.796Z,100569.73
2019-05-03T08:09:55.546Z,100561.08
2019-05-03T08:12:24.757Z,100568.14
2019-05-03T08:14:55.231Z,100570.25
2019-05-03T08:17:25.562Z,100570.55
2019-05-03T08:19:55.239Z,100576.76
2019-05-03T08:22:25.554Z,100574.11
2019-05-03T08:24:55.473Z,100576.86
2019-05-03T08:27:25.109Z,100576.41
2019-05-03T08:29:55.744Z,100567.30
2019-05-03T08:32:35.640Z,100567.14
2019-05-03T08:35:17.489Z,100573.20
2019-05-03T08:37:51.286Z,100570.56
2019-05-03T08:40:21.466Z,100568.86
2019-05-03T08:42:50.244Z,100569.94
2019-05-03T08:45:19.002Z,100570.23
2019-05-03T08:47:47.625Z,100558.82
2019-05-03T08:50:21.354Z,100569.27
2019-05-03T08:52:47.246Z,100573.34
2019-05-03T08:55:16.075Z,100571.36
2019-05-03T08:57:44.944Z,100571.37
2019-05-03T09:00:15.886Z,100572.05
2019-05-03T09:02:44.880Z,100561.75
2019-05-03T09:05:15.750Z,100561.48
2019-05-03T09:07:44.844Z,100570.20
2019-05-03T09:10:20.546Z,100565.05
2019-05-03T09:13:07.809Z,100567.50
2019-05-03T09:15:36.680Z,100578.08
2019-05-03T09:18:06.035Z,100578.20
2019-05-03T09:20:35.642Z,100576.13
2019-05-03T09:23:05.375Z,100578.36
2019-05-03T09:25:35.504Z,100578.63
2019-05-03T09:28:04.800Z,100572.49
2019-05-03T09:30:35.698Z,100569.13
2019-05-03T09:33:08.441Z,100567.09
2019-05-03T09:35:36.068Z,100557.72
2019-05-03T09:38:05.726Z,100561.89
2019-05-03T09:40:35.336Z,100551.42
2019-05-03T09:43:04.542Z,100555.82
2019-05-03T09:45:35.335Z,100551.44
2019-05-03T09:48:05.656Z,100544.73
2019-05-03T09:50:35.902Z,100548.38
2019-05-03T09:53:05.444Z,100551.84
2019-05-03T09:55:37.565Z,100543.50
2019-05-03T09:58:06.372Z,100556.83
2019-05-03T10:00:35.015Z,100557.42
2019-05-03T10:03:05.619Z,100549.89
2019-05-03T10:05:35.066Z,100543.59
2019-05-03T10:08:05.134Z,100540.59
2019-05-03T10:10:52.912Z,100538.89
2019-05-03T10:13:23.858Z,100531.27
2019-05-03T10:15:52.230Z,100533.94
2019-05-03T10:18:20.970Z,100547.50
2019-05-03T10:20:49.690Z,100549.58
2019-05-03T10:23:37.330Z,100552.35
2019-05-03T10:26:06.341Z,100544.34
2019-05-03T10:28:35.146Z,100535.90
2019-05-03T10:31:07.538Z,100542.78
2019-05-03T10:33:40.963Z,100548.00
2019-05-03T10:36:09.595Z,100535.59
2019-05-03T10:38:38.366Z,100539.61
2019-05-03T10:41:07.127Z,100535.73
2019-05-03T10:43:35.861Z,100540.10
2019-05-03T10:46:05.244Z,100538.39
2019-05-03T10:48:35.604Z,100539.39
2019-05-03T10:51:04.857Z,100532.45
2019-05-03T10:53:37.008Z,100539.44
2019-05-03T10:56:35.967Z,100541.06
2019-05-03T10:59:06.510Z,100538.98
2019-05-03T11:02:06.858Z,100540.68
2019-05-03T11:04:35.680Z,100514.76
2019-05-03T11:07:05.539Z,100511.58
2019-05-03T11:09:47.907Z,100509.94
2019-05-03T11:12:05.515Z,100526.58
2019-05-03T11:14:35.040Z,100528.03
2019-05-03T11:17:05.657Z,100520.30
2019-05-03T11:19:34.812Z,100524.08
2019-05-03T11:22:05.499Z,100530.44
2019-05-03T11:24:34.890Z,100527.23
2019-05-03T11:27:08.454Z,100533.50
2019-05-03T11:29:37.002Z,100529.48
2019-05-03T11:32:25.503Z,100519.75
2019-05-03T11:35:11.568Z,100511.44
2019-05-03T11:37:46.653Z,100519.28
2019-05-03T11:40:15.804Z,100523.97
2019-05-03T11:42:45.112Z,100516.89
2019-05-03T11:45:15.221Z,100516.10
2019-05-03T11:47:45.784Z,100519.19
2019-05-03T11:50:15.000Z,100519.93
2019-05-03T11:52:46.849Z,100505.93
2019-05-03T11:55:15.927Z,100497.16
2019-05-03T11:57:45.142Z,100499.58
2019-05-03T12:00:18.928Z,100502.92
2019-05-03T12:03:15.841Z,100497.73
2019-05-03T12:05:47.670Z,100498.53
2019-05-03T12:08:16.292Z,100494.59
2019-05-03T12:10:55.355Z,100487.67
2019-05-03T12:13:24.772Z,100496.52
2019-05-03T12:15:55.130Z,100492.20
2019-05-03T12:18:25.180Z,100487.62
2019-05-03T12:20:57.070Z,100487.63
2019-05-03T12:23:26.094Z,100478.41
2019-05-03T12:25:55.759Z,100487.98
2019-05-03T12:28:25.689Z,100486.80
2019-05-03T12:30:54.609Z,100483.09
2019-05-03T12:33:25.831Z,100476.69
2019-05-03T12:35:55.237Z,100481.28
2019-05-03T12:38:25.556Z,100477.05
2019-05-03T12:40:54.707Z,100488.98
2019-05-03T12:43:25.477Z,100491.54
2019-05-03T12:45:54.120Z,100491.03
2019-05-03T12:48:24.646Z,100468.52
2019-05-03T12:50:53.651Z,100470.25
2019-05-03T12:53:24.572Z,100462.56
2019-05-03T12:55:52.998Z,100472.77
2019-05-03T12:58:25.355Z,100477.08
2019-05-03T13:01:11.558Z,100474.31
2019-05-03T13:03:59.755Z,100475.42
2019-05-03T13:06:30.438Z,100468.22
2019-05-03T13:08:59.081Z,100469.15
2019-05-03T13:11:28.120Z,100460.28
2019-05-03T13:13:56.672Z,100468.25
2019-05-03T13:16:25.208Z,100464.95
2019-05-03T13:18:55.300Z,100453.77
2019-05-03T13:21:25.262Z,100448.16
2019-05-03T13:23:54.784Z,100453.16
2019-05-03T13:26:25.406Z,100449.55
2019-05-03T13:28:55.279Z,100446.00
2019-05-03T13:31:25.096Z,100451.58
2019-05-03T13:33:54.928Z,100439.09
2019-05-03T13:36:25.317Z,100443.53
2019-05-03T13:38:58.684Z,100439.06
2019-05-03T13:41:25.074Z,100438.23
2019-05-03T13:43:54.857Z,100435.84
2019-05-03T13:46:24.632Z,100439.08
2019-05-03T13:48:55.498Z,100437.34
2019-05-03T13:51:25.352Z,100436.14
2019-05-03T13:53:55.033Z,100434.65
2019-05-03T13:56:24.666Z,100428.19
2019-05-03T13:58:55.143Z,100419.67
2019-05-03T14:01:25.220Z,100432.05
2019-05-03T14:03:54.581Z,100423.44
2019-05-03T14:06:24.612Z,100426.66
2019-05-03T14:08:54.801Z,100416.30
2019-05-03T14:11:25.379Z,100410.34
2019-05-03T14:13:55.274Z,100413.34
2019-05-03T14:16:23.993Z,100411.11
2019-05-03T14:18:56.005Z,100398.55
2019-05-03T14:21:30.880Z,100398.29
2019-05-03T14:24:08.591Z,100396.91
2019-05-03T14:26:38.351Z,100395.00
2019-05-03T14:29:07.348Z,100403.48
2019-05-03T14:31:36.060Z,100398.77
2019-05-03T14:34:06.022Z,100393.25
2019-05-03T14:36:35.844Z,100392.21
2019-05-03T14:39:09.673Z,100391.14
2019-05-03T14:41:37.667Z,100394.31
2019-05-03T14:44:06.335Z,100405.71
2019-05-03T14:46:36.133Z,100404.81
2019-05-03T14:49:05.603Z,100394.09
2019-05-03T14:51:34.923Z,100390.20
2019-05-03T14:54:05.535Z,100391.68
2019-05-03T14:56:41.203Z,100386.14
2019-05-03T14:59:28.035Z,100382.70
2019-05-03T15:02:16.465Z,100384.20
2019-05-03T15:04:44.986Z,100387.19
2019-05-03T15:07:15.356Z,100387.25
2019-05-03T15:09:45.782Z,100384.94
2019-05-03T15:12:14.788Z,100383.16
2019-05-03T15:14:45.146Z,100384.16
2019-05-03T15:17:13.959Z,100383.59
2019-05-03T15:19:42.524Z,100376.85
2019-05-03T15:22:11.163Z,100381.34
2019-05-03T15:24:39.828Z,100376.19
2019-05-03T15:27:08.478Z,100380.73
2019-05-03T15:29:37.020Z,100380.45
2019-05-03T15:32:05.656Z,100371.90
2019-05-03T15:34:35.371Z,100380.51
2019-05-03T15:37:05.494Z,100380.83
2019-05-03T15:39:34.619Z,100371.42
2019-05-03T15:42:05.309Z,100382.33
2019-05-03T15:44:59.545Z,100376.18
2019-05-03T15:47:32.365Z,100370.88
2019-05-03T15:50:01.220Z,100376.19
2019-05-03T15:52:29.852Z,100373.33
2019-05-03T15:54:58.475Z,100375.38
2019-05-03T15:57:26.992Z,100375.09
2019-05-03T15:59:55.554Z,100382.09
2019-05-03T16:02:24.671Z,100373.16
2019-05-03T16:04:55.696Z,100375.66
2019-05-03T16:07:24.982Z,100369.53
2019-05-03T16:09:55.295Z,100376.78
2019-05-03T16:12:24.006Z,100369.54
2019-05-03T16:14:52.764Z,100362.30
2019-05-03T16:17:21.484Z,100362.86
2019-05-03T16:19:50.113Z,100364.80
2019-05-03T16:22:18.650Z,100359.52
2019-05-03T16:24:47.282Z,100363.42
2019-05-03T16:27:24.875Z,100361.47
2019-05-03T16:29:54.925Z,100362.87
2019-05-03T16:32:23.731Z,100361.75
2019-05-03T16:34:52.477Z,100357.02
2019-05-03T16:37:21.117Z,100366.50
2019-05-03T16:39:50.198Z,100367.59
2019-05-03T16:42:18.957Z,100365.09
2019-05-03T16:44:47.647Z,100368.12
2019-05-03T16:47:16.281Z,100363.16
2019-05-03T16:49:44.957Z,100356.48
2019-05-03T16:52:14.753Z,100370.11
2019-05-03T16:54:45.363Z,100360.09
2019-05-03T16:57:14.845Z,100362.58
2019-05-03T16:59:44.588Z,100362.31
2019-05-03T17:02:14.670Z,100353.11
2019-05-03T17:04:49.755Z,100359.23
2019-05-03T17:07:35.410Z,100355.64
2019-05-03T17:10:27.630Z,100361.16
2019-05-03T17:12:56.976Z,100357.53
2019-05-03T17:15:25.865Z,100367.82
2019-05-03T17:17:54.430Z,100365.27
2019-05-03T17:20:23.046Z,100370.91
2019-05-03T17:22:51.779Z,100372.00
2019-05-03T17:25:20.327Z,100368.12
2019-05-03T17:27:48.864Z,100364.77
2019-05-03T17:30:17.669Z,100366.75
2019-05-03T17:32:46.418Z,100364.77
2019-05-03T17:35:15.177Z,100365.82
2019-05-03T17:37:45.189Z,100370.84
2019-05-03T17:40:34.882Z,100366.05
2019-05-03T17:43:14.805Z,100366.94
2019-05-03T17:45:46.926Z,100358.95
2019-05-03T17:48:15.832Z,100366.64
2019-05-03T17:50:45.416Z,100358.02
2019-05-03T17:53:45.474Z,100360.47
2019-05-03T17:56:18.229Z,100356.83
2019-05-03T17:58:55.015Z,100352.07
2019-05-03T18:01:41.962Z,100348.44
2019-05-03T18:04:20.475Z,100344.57
2019-05-03T18:07:00.424Z,100351.54
2019-05-03T18:09:32.120Z,100354.61
2019-05-03T18:12:04.580Z,100353.47
2019-05-03T18:14:34.458Z,100356.80
2019-05-03T18:17:05.508Z,100350.91
2019-05-03T18:19:34.307Z,100348.45
2019-05-03T18:22:05.018Z,100351.17
2019-05-03T18:24:35.223Z,100353.59
2019-05-03T18:27:04.579Z,100354.48
2019-05-03T18:29:34.554Z,100354.16
2019-05-03T18:32:05.335Z,100353.86
2019-05-03T18:34:34.184Z,100349.37
2019-05-03T18:37:04.814Z,100351.93
2019-05-03T18:39:34.687Z,100353.09
2019-05-03T18:42:05.773Z,100358.05
2019-05-03T18:44:50.170Z,100357.47
2019-05-03T18:47:22.907Z,100360.24
2019-05-03T18:49:51.536Z,100358.50
2019-05-03T18:52:20.176Z,100359.24
2019-05-03T18:54:48.835Z,100357.58
2019-05-03T18:57:17.457Z,100353.91
2019-05-03T18:59:46.106Z,100352.33
2019-05-03T19:02:15.044Z,100352.02
2019-05-03T19:04:48.574Z,100351.19
2019-05-03T19:07:29.086Z,100358.50
2019-05-03T19:10:11.325Z,100354.64
2019-05-03T19:12:48.131Z,100355.63
2019-05-03T19:15:17.068Z,100357.55
2019-05-03T19:17:54.759Z,100351.16
2019-05-03T19:20:24.658Z,100358.47
2019-05-03T19:22:54.381Z,100353.10
2019-05-03T19:25:25.338Z,100355.94
2019-05-03T19:27:54.558Z,100346.44
2019-05-03T19:30:24.483Z,100355.35
2019-05-03T19:32:55.077Z,100354.18
2019-05-03T19:35:24.983Z,100360.84
2019-05-03T19:37:55.491Z,100358.00
2019-05-03T19:40:25.606Z,100354.42
2019-05-03T19:42:55.204Z,100354.91
2019-05-03T19:45:24.863Z,100355.81
2019-05-03T19:47:55.211Z,100347.62
2019-05-03T19:50:26.968Z,100349.36
2019-05-03T19:53:02.679Z,100351.23
2019-05-03T19:55:31.319Z,100343.70
2019-05-03T19:58:00.068Z,100348.84
2019-05-03T20:00:38.297Z,100347.07
2019-05-03T20:03:12.479Z,100349.29
2019-05-03T20:06:06.496Z,100353.38
2019-05-03T20:08:38.358Z,100344.81
2019-05-03T20:11:14.872Z,100349.18
2019-05-03T20:13:45.176Z,100352.20
2019-05-03T20:16:15.372Z,100343.87
2019-05-03T20:18:45.366Z,100344.30
2019-05-03T20:21:15.011Z,100344.00
2019-05-03T20:23:44.726Z,100342.43
2019-05-03T20:26:15.069Z,100342.52
2019-05-03T20:28:44.964Z,100342.84
2019-05-03T20:31:13.940Z,100345.98
2019-05-03T20:33:42.857Z,100343.85
2019-05-03T20:36:11.571Z,100340.05
2019-05-03T20:38:40.423Z,100345.47
2019-05-03T20:41:09.314Z,100338.09
2019-05-03T20:43:48.367Z,100343.44
2019-05-03T20:46:20.637Z,100341.39
2019-05-03T20:48:51.710Z,100341.80
2019-05-03T20:51:20.493Z,100338.48
2019-05-03T20:53:49.226Z,100346.33
2019-05-03T20:56:17.805Z,100343.34
2019-05-03T20:58:46.578Z,100340.39
2019-05-03T21:01:15.424Z,100342.18
2019-05-03T21:03:44.942Z,100342.89
2019-05-03T21:06:15.235Z,100339.97
2019-05-03T21:08:52.994Z,100336.66
2019-05-03T21:11:14.909Z,100334.72
2019-05-03T21:13:45.012Z,100338.04
2019-05-03T21:16:39.190Z,100342.35
2019-05-03T21:19:27.582Z,100339.25
2019-05-03T21:22:07.732Z,100337.51
2019-05-03T21:24:47.926Z,100337.15
2019-05-03T21:27:16.714Z,100331.06
2019-05-03T21:29:51.590Z,100334.88
2019-05-03T21:32:20.572Z,100327.33
2019-05-03T21:34:49.199Z,100335.69
2019-05-03T21:37:17.893Z,100334.94
2019-05-03T21:39:46.647Z,100343.08
2019-05-03T21:42:15.564Z,100336.29
2019-05-03T21:44:44.817Z,100333.31
2019-05-03T21:47:24.636Z,100328.77
2019-05-03T21:49:53.618Z,100332.81
2019-05-03T21:52:22.275Z,100330.75
2019-05-03T21:54:50.903Z,100327.60
2019-05-03T21:57:19.734Z,100325.67
2019-05-03T21:59:48.482Z,100320.22
2019-05-03T22:02:17.183Z,100321.34
2019-05-03T22:04:45.792Z,100321.38
2019-05-03T22:07:14.971Z,100319.80
2019-05-03T22:09:45.290Z,100323.31
2019-05-03T22:12:14.503Z,100330.05
2019-05-03T22:14:54.498Z,100326.30
2019-05-03T22:17:41.603Z,100333.20
2019-05-03T22:20:24.589Z,100333.01
2019-05-03T22:22:59.801Z,100322.27
2019-05-03T22:25:30.715Z,100312.33
2019-05-03T22:27:59.472Z,100311.75
2019-05-03T22:30:28.092Z,100309.41
2019-05-03T22:32:56.777Z,100307.77
2019-05-03T22:35:25.517Z,100310.33
2019-05-03T22:37:55.086Z,100307.05
2019-05-03T22:40:25.117Z,100297.09
2019-05-03T22:42:54.131Z,100300.64
2019-05-03T22:45:22.756Z,100295.91
2019-05-03T22:47:51.511Z,100296.97
2019-05-03T22:50:20.247Z,100282.69
2019-05-03T22:52:48.773Z,100283.89
2019-05-03T22:55:17.293Z,100282.69
2019-05-03T22:57:46.137Z,100281.30
2019-05-03T23:00:14.922Z,100280.20
2019-05-03T23:02:45.513Z,100274.30
2019-05-03T23:05:14.577Z,100274.78
2019-05-03T23:07:44.241Z,100272.75
2019-05-03T23:10:14.776Z,100273.50
2019-05-03T23:12:45.207Z,100272.41
2019-05-03T23:15:15.086Z,100268.97
2019-05-03T23:17:45.137Z,100261.26
2019-05-03T23:20:25.474Z,100259.13
2019-05-03T23:22:54.795Z,100262.06
2019-05-03T23:25:25.031Z,100268.91
2019-05-03T23:27:55.151Z,100263.67
2019-05-03T23:30:24.795Z,100265.69
2019-05-03T23:32:54.719Z,100265.35
2019-05-03T23:35:24.662Z,100270.84
2019-05-03T23:37:54.365Z,100268.75
2019-05-03T23:40:23.110Z,100268.44
2019-05-03T23:42:51.644Z,100276.31
2019-05-03T23:45:20.289Z,100272.48
2019-05-03T23:47:49.095Z,100275.41
2019-05-03T23:50:19.254Z,100269.35
2019-05-03T23:52:47.993Z,100269.13
2019-05-03T23:55:34.692Z,100266.72
2019-05-03T23:58:04.844Z,100266.43
